Time;durP1;ratioP1;P1;durP2;ratioP2;P2;SDS_P1;SDS_P2;PMS_P1;PMS_P2;Temp;Humidity;BMP_temperature;BMP_pressure;BME280_temperature;BME280_humidity;BME280_pressure;Samples;Min_cycle;Max_cycle;Signal;HPM_P1;HPM_P2
2023/07/28 00:00:44;;;;;;;1.80;1.20;;;;;;;;;;5082370;27;88852;-61
2023/07/28 00:03:12;;;;;;;3.80;0.80;;;;;;;;;;5077245;27;87710;-60
2023/07/28 00:05:41;;;;;;;2.30;1.10;;;;;;;;;;5067717;27;89577;-61
2023/07/28 00:08:11;;;;;;;1.13;0.83;;;;;;;;;;5080635;27;88897;-56
2023/07/28 00:10:42;;;;;;;1.43;1.27;;;;;;;;;;5067765;27;88637;-59
2023/07/28 00:13:10;;;;;;;1.70;0.90;;;;;;;;;;5072821;27;88531;-59
2023/07/28 00:15:38;;;;;;;1.50;0.83;;;;;;;;;;5082358;27;89622;-60
2023/07/28 00:18:07;;;;;;;2.53;1.20;;;;;;;;;;5070553;27;89066;-60
2023/07/28 00:20:35;;;;;;;2.13;1.43;;;;;;;;;;5061781;27;88749;-60
2023/07/28 00:23:04;;;;;;;2.90;1.37;;;;;;;;;;5078594;27;87573;-60
2023/07/28 00:25:34;;;;;;;5.03;1.30;;;;;;;;;;5079581;27;89424;-60
2023/07/28 00:28:02;;;;;;;3.90;2.03;;;;;;;;;;5073199;27;89085;-60
2023/07/28 00:30:32;;;;;;;1.57;1.03;;;;;;;;;;5082718;27;88750;-57
2023/07/28 00:33:00;;;;;;;3.00;1.80;;;;;;;;;;5076277;27;87320;-57
2023/07/28 00:35:29;;;;;;;2.40;1.40;;;;;;;;;;5075759;27;89665;-57
2023/07/28 00:37:57;;;;;;;4.87;1.60;;;;;;;;;;5081277;27;89973;-57
2023/07/28 00:40:26;;;;;;;3.27;1.70;;;;;;;;;;5081858;27;89709;-57
2023/07/28 00:42:56;;;;;;;5.73;1.90;;;;;;;;;;5075912;27;87999;-57
2023/07/28 00:45:24;;;;;;;3.57;1.77;;;;;;;;;;5062164;27;89693;-57
2023/07/28 00:47:53;;;;;;;5.23;1.90;;;;;;;;;;5061861;27;89565;-57
2023/07/28 00:50:21;;;;;;;3.07;1.30;;;;;;;;;;5069645;27;88857;-57
2023/07/28 00:52:50;;;;;;;3.43;1.90;;;;;;;;;;5080206;27;87519;-57
2023/07/28 00:55:19;;;;;;;3.87;2.17;;;;;;;;;;5081760;27;89823;-57
2023/07/28 00:57:47;;;;;;;3.00;1.97;;;;;;;;;;5073899;27;88996;-57
2023/07/28 01:00:17;;;;;;;3.30;2.20;;;;;;;;;;5073420;27;88575;-57
2023/07/28 01:02:45;;;;;;;2.83;1.60;;;;;;;;;;5081045;27;87988;-57
2023/07/28 01:05:14;;;;;;;3.40;1.90;;;;;;;;;;5082106;27;89798;-57
2023/07/28 01:07:44;;;;;;;3.83;2.53;;;;;;;;;;5080129;27;88397;-57
2023/07/28 01:10:13;;;;;;;3.63;2.20;;;;;;;;;;5081650;27;88642;-57
2023/07/28 01:12:42;;;;;;;4.17;2.20;;;;;;;;;;5081463;27;87907;-57
2023/07/28 01:15:11;;;;;;;4.57;2.03;;;;;;;;;;5081783;27;89675;-57
2023/07/28 01:17:41;;;;;;;3.57;2.30;;;;;;;;;;5073783;27;89477;-57
2023/07/28 01:20:09;;;;;;;3.67;2.03;;;;;;;;;;5080924;27;88774;-57
2023/07/28 01:22:43;;;;;;;2.67;2.20;;;;;;;;;;5082040;27;87615;-57
2023/07/28 01:25:14;;;;;;;4.17;1.80;;;;;;;;;;5067891;27;89439;-57
2023/07/28 01:27:44;;;;;;;2.27;1.70;;;;;;;;;;5060611;27;90147;-57
2023/07/28 01:30:13;;;;;;;2.97;1.90;;;;;;;;;;5061415;27;89546;-57
2023/07/28 01:32:41;;;;;;;4.23;2.10;;;;;;;;;;5081419;27;87597;-57
2023/07/28 01:35:10;;;;;;;2.20;1.83;;;;;;;;;;5070189;27;88723;-57
2023/07/28 01:37:41;;;;;;;3.47;1.80;;;;;;;;;;5095158;27;91761;-57
2023/07/28 01:40:10;;;;;;;4.03;1.87;;;;;;;;;;5098859;27;88400;-57
2023/07/28 01:42:38;;;;;;;2.80;1.63;;;;;;;;;;5068240;27;87638;-63
2023/07/28 01:45:09;;;;;;;2.97;1.90;;;;;;;;;;5058444;27;89427;-63
2023/07/28 01:47:37;;;;;;;3.00;1.70;;;;;;;;;;5073401;27;88752;-63
2023/07/28 01:50:06;;;;;;;4.00;1.90;;;;;;;;;;5099348;27;88842;-63
2023/07/28 01:52:35;;;;;;;2.93;2.00;;;;;;;;;;5077811;27;87979;-63
2023/07/28 01:55:03;;;;;;;6.70;2.10;;;;;;;;;;5078587;27;90019;-63
2023/07/28 01:57:34;;;;;;;2.40;1.80;;;;;;;;;;5078713;27;89179;-62
2023/07/28 02:00:03;;;;;;;2.70;1.83;;;;;;;;;;5060044;27;89368;-63
2023/07/28 02:02:33;;;;;;;5.73;2.23;;;;;;;;;;5087647;27;87578;-63
2023/07/28 02:05:01;;;;;;;6.17;1.70;;;;;;;;;;5099462;27;87237;-63
2023/07/28 02:07:30;;;;;;;2.87;1.90;;;;;;;;;;5096092;27;89066;-63
2023/07/28 02:09:59;;;;;;;1.80;1.60;;;;;;;;;;5079597;27;88883;-63
2023/07/28 02:12:27;;;;;;;2.10;1.43;;;;;;;;;;5078524;27;87650;-63
2023/07/28 02:14:56;;;;;;;2.10;1.50;;;;;;;;;;5078345;27;89309;-63
2023/07/28 02:17:24;;;;;;;3.47;2.23;;;;;;;;;;5077693;27;90062;-63
2023/07/28 02:19:54;;;;;;;3.43;2.20;;;;;;;;;;5080559;27;89706;-63
2023/07/28 02:22:22;;;;;;;3.10;1.63;;;;;;;;;;5082163;27;88243;-63
2023/07/28 02:24:51;;;;;;;1.90;1.37;;;;;;;;;;5077977;27;89726;-63
2023/07/28 02:27:20;;;;;;;7.50;2.23;;;;;;;;;;5078488;27;87846;-63
2023/07/28 02:29:48;;;;;;;2.63;1.40;;;;;;;;;;5079912;27;88697;-63
2023/07/28 02:32:17;;;;;;;3.60;1.90;;;;;;;;;;5079838;27;88259;-63
2023/07/28 02:34:45;;;;;;;4.77;1.73;;;;;;;;;;5081128;27;90664;-63
2023/07/28 02:37:15;;;;;;;2.67;2.13;;;;;;;;;;5075433;27;88942;-63
2023/07/28 02:39:44;;;;;;;3.70;2.27;;;;;;;;;;5078163;27;88801;-63
2023/07/28 02:42:13;;;;;;;3.57;1.90;;;;;;;;;;5079819;27;88002;-62
2023/07/28 02:44:42;;;;;;;3.23;2.20;;;;;;;;;;5069035;27;89632;-59
2023/07/28 02:47:10;;;;;;;3.03;1.63;;;;;;;;;;5073165;27;89295;-60
2023/07/28 02:49:38;;;;;;;4.57;1.73;;;;;;;;;;5063759;27;87513;-59
2023/07/28 02:52:08;;;;;;;3.23;2.27;;;;;;;;;;5074144;27;87702;-61
2023/07/28 02:54:37;;;;;;;5.93;2.00;;;;;;;;;;5085954;27;89942;-61
2023/07/28 02:57:06;;;;;;;3.80;2.10;;;;;;;;;;5101594;27;89504;-58
2023/07/28 02:59:35;;;;;;;3.30;2.40;;;;;;;;;;5079909;27;88707;-62
2023/07/28 03:02:03;;;;;;;4.10;1.87;;;;;;;;;;5081259;27;87651;-62
2023/07/28 03:04:32;;;;;;;2.60;2.10;;;;;;;;;;5081132;27;88622;-62
2023/07/28 03:07:00;;;;;;;4.03;2.83;;;;;;;;;;5080469;27;89008;-62
2023/07/28 03:09:29;;;;;;;2.47;2.20;;;;;;;;;;5081668;27;89497;-63
2023/07/28 03:11:59;;;;;;;4.13;1.60;;;;;;;;;;5078315;27;88827;-64
2023/07/28 03:14:28;;;;;;;2.43;1.80;;;;;;;;;;5083818;27;89559;-65
2023/07/28 03:16:59;;;;;;;3.97;2.43;;;;;;;;;;5077106;27;89071;-64
2023/07/28 03:19:27;;;;;;;3.70;2.33;;;;;;;;;;5077992;27;88826;-65
2023/07/28 03:21:56;;;;;;;3.50;2.20;;;;;;;;;;5084027;27;87720;-65
2023/07/28 03:24:24;;;;;;;4.10;2.27;;;;;;;;;;5083439;27;89682;-64
2023/07/28 03:26:53;;;;;;;3.50;2.30;;;;;;;;;;5084061;27;89218;-64
2023/07/28 03:29:23;;;;;;;4.67;2.37;;;;;;;;;;5083359;27;88627;-64
2023/07/28 03:31:51;;;;;;;8.90;2.60;;;;;;;;;;5080711;27;88856;-64
2023/07/28 03:34:20;;;;;;;3.40;2.50;;;;;;;;;;5083604;27;89557;-64
2023/07/28 03:36:49;;;;;;;5.20;2.20;;;;;;;;;;5081352;27;89393;-64
2023/07/28 03:39:18;;;;;;;4.43;1.80;;;;;;;;;;5082790;27;89114;-64
2023/07/28 03:41:46;;;;;;;2.93;2.07;;;;;;;;;;5080928;27;87880;-64
2023/07/28 03:44:16;;;;;;;7.47;3.13;;;;;;;;;;5075684;27;89804;-64
2023/07/28 03:46:46;;;;;;;3.60;2.50;;;;;;;;;;5083336;27;89183;-64
2023/07/28 03:49:15;;;;;;;3.63;2.60;;;;;;;;;;5084259;27;87495;-65
2023/07/28 03:51:43;;;;;;;3.60;2.70;;;;;;;;;;5077304;27;87476;-65
2023/07/28 03:54:11;;;;;;;3.50;2.17;;;;;;;;;;5077182;27;89568;-64
2023/07/28 03:56:40;;;;;;;3.57;1.90;;;;;;;;;;5082874;27;90046;-64
2023/07/28 03:59:08;;;;;;;3.53;2.50;;;;;;;;;;5083283;27;89670;-64
2023/07/28 04:01:37;;;;;;;3.77;2.40;;;;;;;;;;5081756;27;87656;-64
2023/07/28 04:04:08;;;;;;;5.00;3.00;;;;;;;;;;5083245;27;89346;-64
2023/07/28 04:06:43;;;;;;;4.10;2.20;;;;;;;;;;5082974;27;87912;-64
2023/07/28 04:09:12;;;;;;;4.63;2.63;;;;;;;;;;5081442;27;88601;-65
2023/07/28 04:11:41;;;;;;;4.27;2.63;;;;;;;;;;5083028;27;87399;-65
2023/07/28 04:14:09;;;;;;;4.50;2.67;;;;;;;;;;5080190;27;89881;-65
2023/07/28 04:16:38;;;;;;;4.43;2.50;;;;;;;;;;5062718;27;88967;-64
2023/07/28 04:19:08;;;;;;;4.27;2.33;;;;;;;;;;5080582;27;88850;-65
2023/07/28 04:21:39;;;;;;;3.57;2.23;;;;;;;;;;5082246;27;87902;-65
2023/07/28 04:24:09;;;;;;;5.27;2.70;;;;;;;;;;5083709;27;89637;-64
2023/07/28 04:26:38;;;;;;;3.63;2.00;;;;;;;;;;5066541;27;89189;-64
2023/07/28 04:29:06;;;;;;;2.70;2.33;;;;;;;;;;5062415;27;88543;-64
2023/07/28 04:31:34;;;;;;;3.03;2.63;;;;;;;;;;5062825;27;87739;-64
2023/07/28 04:34:04;;;;;;;4.13;2.17;;;;;;;;;;5062700;27;89046;-64
2023/07/28 04:36:34;;;;;;;3.60;2.47;;;;;;;;;;5075193;27;89071;-64
2023/07/28 04:39:03;;;;;;;3.30;1.87;;;;;;;;;;5093472;27;89312;-64
2023/07/28 04:41:31;;;;;;;3.50;1.93;;;;;;;;;;5107368;27;86762;-64
2023/07/28 04:44:00;;;;;;;3.00;1.77;;;;;;;;;;5104213;27;88611;-65
2023/07/28 04:46:28;;;;;;;3.50;2.63;;;;;;;;;;5104297;27;88901;-65
2023/07/28 04:48:57;;;;;;;3.87;2.23;;;;;;;;;;5084079;27;88737;-64
2023/07/28 04:51:25;;;;;;;2.43;1.87;;;;;;;;;;5082350;27;87651;-65
2023/07/28 04:53:55;;;;;;;4.87;2.97;;;;;;;;;;5081248;27;89515;-65
2023/07/28 04:56:24;;;;;;;5.67;2.30;;;;;;;;;;5082226;27;89091;-65
2023/07/28 04:58:52;;;;;;;6.97;2.53;;;;;;;;;;5082161;27;89006;-64
2023/07/28 05:01:21;;;;;;;4.53;2.20;;;;;;;;;;5082405;27;87758;-64
2023/07/28 05:03:49;;;;;;;3.37;2.33;;;;;;;;;;5080891;27;89666;-64
2023/07/28 05:06:18;;;;;;;4.07;2.53;;;;;;;;;;5082268;27;89200;-64
2023/07/28 05:08:46;;;;;;;4.07;1.97;;;;;;;;;;5082352;27;89425;-64
2023/07/28 05:11:16;;;;;;;2.20;1.47;;;;;;;;;;5081493;27;87761;-64
2023/07/28 05:13:45;;;;;;;2.87;1.37;;;;;;;;;;5080193;27;89719;-64
2023/07/28 05:16:13;;;;;;;2.80;2.27;;;;;;;;;;5081922;27;89046;-65
2023/07/28 05:18:42;;;;;;;1.80;1.60;;;;;;;;;;5081492;27;88826;-64
2023/07/28 05:21:11;;;;;;;2.17;1.70;;;;;;;;;;5080446;27;87694;-64
2023/07/28 05:23:39;;;;;;;4.83;2.03;;;;;;;;;;5081895;27;89477;-64
2023/07/28 05:26:08;;;;;;;5.90;1.90;;;;;;;;;;5081442;27;87330;-65
2023/07/28 05:28:37;;;;;;;3.97;1.60;;;;;;;;;;5081919;27;87707;-64
2023/07/28 05:31:06;;;;;;;2.90;1.33;;;;;;;;;;5079417;27;87647;-64
2023/07/28 05:33:35;;;;;;;3.80;1.60;;;;;;;;;;5080843;27;88494;-64
2023/07/28 05:36:02;;;;;;;1.60;1.50;;;;;;;;;;5079285;27;90072;-64
2023/07/28 05:38:34;;;;;;;2.43;1.67;;;;;;;;;;5081035;27;89756;-65
2023/07/28 05:41:03;;;;;;;2.60;1.60;;;;;;;;;;5082036;27;87392;-65
2023/07/28 05:43:32;;;;;;;3.23;1.77;;;;;;;;;;5081416;27;89792;-64
2023/07/28 05:46:02;;;;;;;1.83;1.47;;;;;;;;;;5079573;27;89319;-65
2023/07/28 05:48:30;;;;;;;1.97;1.57;;;;;;;;;;5081234;27;88918;-65
2023/07/28 05:50:59;;;;;;;1.40;1.30;;;;;;;;;;5081696;27;87504;-64
2023/07/28 05:53:27;;;;;;;2.63;1.60;;;;;;;;;;5082071;27;89586;-64
2023/07/28 05:55:56;;;;;;;1.80;1.40;;;;;;;;;;5078741;27;89042;-64
2023/07/28 05:58:24;;;;;;;2.77;1.83;;;;;;;;;;5064799;27;88757;-64
2023/07/28 06:00:53;;;;;;;2.50;1.60;;;;;;;;;;5070357;27;87774;-64
2023/07/28 06:03:23;;;;;;;1.83;1.60;;;;;;;;;;5084758;27;89393;-64
2023/07/28 06:05:52;;;;;;;2.57;1.80;;;;;;;;;;5084030;27;89074;-64
2023/07/28 06:08:20;;;;;;;2.00;1.07;;;;;;;;;;5085091;27;87545;-64
2023/07/28 06:10:48;;;;;;;2.47;1.43;;;;;;;;;;5085044;27;87615;-64
2023/07/28 06:13:17;;;;;;;2.67;1.27;;;;;;;;;;5084684;27;89650;-64
2023/07/28 06:15:45;;;;;;;2.03;1.87;;;;;;;;;;5083844;27;88140;-64
2023/07/28 06:18:14;;;;;;;2.57;1.53;;;;;;;;;;5084854;27;87528;-64
2023/07/28 06:20:45;;;;;;;3.57;1.60;;;;;;;;;;5084902;27;87607;-65
2023/07/28 06:23:13;;;;;;;1.70;1.60;;;;;;;;;;5084700;27;89810;-65
2023/07/28 06:25:44;;;;;;;1.53;1.00;;;;;;;;;;5082980;27;89735;-65
2023/07/28 06:28:12;;;;;;;1.80;1.30;;;;;;;;;;5084642;27;89782;-65
2023/07/28 06:30:41;;;;;;;1.60;1.40;;;;;;;;;;5084316;27;87091;-65
2023/07/28 06:33:10;;;;;;;1.40;0.70;;;;;;;;;;5084231;27;89676;-65
2023/07/28 06:35:38;;;;;;;2.13;1.20;;;;;;;;;;5084270;27;89196;-65
2023/07/28 06:38:08;;;;;;;1.20;1.10;;;;;;;;;;5080267;27;88898;-65
2023/07/28 06:40:37;;;;;;;1.80;1.37;;;;;;;;;;5063491;27;87676;-65
2023/07/28 06:43:07;;;;;;;1.70;1.40;;;;;;;;;;5063207;27;89602;-65
2023/07/28 06:45:35;;;;;;;1.97;1.30;;;;;;;;;;5063165;27;89062;-65
2023/07/28 06:48:04;;;;;;;2.07;1.40;;;;;;;;;;5064272;27;88730;-64
2023/07/28 06:50:33;;;;;;;1.27;1.10;;;;;;;;;;5083863;27;87888;-65
2023/07/28 06:53:01;;;;;;;1.97;1.23;;;;;;;;;;5084013;27;89604;-65
2023/07/28 06:55:31;;;;;;;2.00;1.20;;;;;;;;;;5083657;27;89223;-65
2023/07/28 06:58:00;;;;;;;1.70;1.30;;;;;;;;;;5081434;27;89207;-65
2023/07/28 07:00:29;;;;;;;1.93;0.93;;;;;;;;;;5068155;27;87601;-64
2023/07/28 07:02:57;;;;;;;1.47;1.27;;;;;;;;;;5083691;27;89589;-64
2023/07/28 07:05:28;;;;;;;2.40;1.37;;;;;;;;;;5079154;27;89168;-65
2023/07/28 07:07:56;;;;;;;1.10;0.77;;;;;;;;;;5072917;27;89222;-64
2023/07/28 07:10:25;;;;;;;4.07;1.43;;;;;;;;;;5082488;27;87412;-64
2023/07/28 07:12:56;;;;;;;1.63;1.30;;;;;;;;;;5084634;27;89573;-64
2023/07/28 07:15:25;;;;;;;1.00;0.90;;;;;;;;;;5089245;27;89994;-65
2023/07/28 07:17:53;;;;;;;1.80;0.87;;;;;;;;;;5098573;27;87637;-65
2023/07/28 07:20:21;;;;;;;2.23;1.13;;;;;;;;;;5086438;27;87349;-64
2023/07/28 07:22:50;;;;;;;1.40;0.77;;;;;;;;;;5085180;27;89481;-65
2023/07/28 07:25:18;;;;;;;1.10;0.70;;;;;;;;;;5070132;27;89201;-65
2023/07/28 07:27:47;;;;;;;1.10;1.00;;;;;;;;;;5084378;27;88741;-66
2023/07/28 07:30:17;;;;;;;1.57;1.20;;;;;;;;;;5084211;27;87599;-65
2023/07/28 07:32:46;;;;;;;1.93;1.10;;;;;;;;;;5083990;27;88675;-64
2023/07/28 07:35:14;;;;;;;1.43;0.80;;;;;;;;;;5082325;27;89137;-65
2023/07/28 07:37:43;;;;;;;1.50;0.63;;;;;;;;;;5083783;27;89039;-65
2023/07/28 07:40:14;;;;;;;1.17;1.07;;;;;;;;;;5082941;27;88038;-65
2023/07/28 07:42:43;;;;;;;1.30;1.07;;;;;;;;;;5063921;27;89420;-65
2023/07/28 07:45:12;;;;;;;2.33;0.93;;;;;;;;;;5062902;27;89094;-65
2023/07/28 07:47:42;;;;;;;0.63;0.63;;;;;;;;;;5062577;27;88843;-65
2023/07/28 07:50:12;;;;;;;0.83;0.77;;;;;;;;;;5063683;27;87500;-65
2023/07/28 07:52:40;;;;;;;0.80;0.80;;;;;;;;;;5065392;27;89405;-65
2023/07/28 07:55:11;;;;;;;1.53;1.00;;;;;;;;;;5062830;27;89481;-65
2023/07/28 07:57:40;;;;;;;1.10;0.93;;;;;;;;;;5063772;27;88966;-64
2023/07/28 08:00:10;;;;;;;0.57;0.57;;;;;;;;;;5080911;27;87421;-65
2023/07/28 08:02:39;;;;;;;3.20;1.70;;;;;;;;;;5064468;27;89627;-65
2023/07/28 08:05:12;;;;;;;0.97;0.83;;;;;;;;;;5062122;27;90571;-65
2023/07/28 08:07:40;;;;;;;1.47;0.93;;;;;;;;;;5082317;27;89760;-65
2023/07/28 08:10:09;;;;;;;1.17;1.03;;;;;;;;;;5073731;27;87654;-65
2023/07/28 08:12:37;;;;;;;2.00;1.20;;;;;;;;;;5061812;27;89696;-65
2023/07/28 08:15:06;;;;;;;2.40;1.10;;;;;;;;;;5063120;27;89147;-63
2023/07/28 08:17:35;;;;;;;1.60;1.23;;;;;;;;;;5067005;27;88488;-59
2023/07/28 08:20:04;;;;;;;1.20;0.93;;;;;;;;;;5079072;27;87412;-66
2023/07/28 08:22:34;;;;;;;3.93;0.83;;;;;;;;;;5082476;27;89569;-65
2023/07/28 08:25:02;;;;;;;1.77;0.90;;;;;;;;;;5082003;27;87820;-67
2023/07/28 08:27:31;;;;;;;1.07;0.90;;;;;;;;;;5082475;27;88912;-67
2023/07/28 08:29:59;;;;;;;1.07;0.90;;;;;;;;;;5076579;27;89515;-68
2023/07/28 08:32:28;;;;;;;1.77;1.00;;;;;;;;;;5073760;27;89570;-56
2023/07/28 08:34:57;;;;;;;0.80;0.80;;;;;;;;;;5080384;27;88073;-56
2023/07/28 08:37:25;;;;;;;2.10;1.30;;;;;;;;;;5061952;27;88947;-56
2023/07/28 08:39:55;;;;;;;1.33;0.90;;;;;;;;;;5063335;27;87626;-56
2023/07/28 08:42:24;;;;;;;1.33;0.83;;;;;;;;;;5080311;27;89702;-55
2023/07/28 08:44:53;;;;;;;2.60;1.07;;;;;;;;;;5069708;27;88974;-55
2023/07/28 08:47:21;;;;;;;2.40;1.07;;;;;;;;;;5082437;27;88686;-56
2023/07/28 08:49:50;;;;;;;3.40;0.93;;;;;;;;;;5082388;27;87343;-55
2023/07/28 08:52:18;;;;;;;2.57;1.10;;;;;;;;;;5081743;27;89181;-56
2023/07/28 08:54:47;;;;;;;2.30;1.30;;;;;;;;;;5081499;27;90133;-55
2023/07/28 08:57:19;;;;;;;2.17;1.17;;;;;;;;;;5064411;27;89535;-56
2023/07/28 08:59:48;;;;;;;4.67;1.70;;;;;;;;;;5061916;27;87868;-57
2023/07/28 09:02:17;;;;;;;3.07;1.23;;;;;;;;;;5065563;27;89801;-56
2023/07/28 09:04:45;;;;;;;1.77;1.20;;;;;;;;;;5079038;27;88949;-56
2023/07/28 09:07:14;;;;;;;1.80;1.00;;;;;;;;;;5077039;27;87878;-56
2023/07/28 09:09:43;;;;;;;1.17;1.07;;;;;;;;;;5061576;27;87590;-55
2023/07/28 09:12:11;;;;;;;1.10;1.00;;;;;;;;;;5061271;27;89472;-55
2023/07/28 09:14:41;;;;;;;3.97;1.00;;;;;;;;;;5081231;27;89111;-56
2023/07/28 09:17:10;;;;;;;2.80;1.33;;;;;;;;;;5081536;27;89152;-56
2023/07/28 09:19:51;;;;;;;1.70;1.20;;;;;;;;;;5074601;27;87838;-56
2023/07/28 09:22:20;;;;;;;1.83;1.17;;;;;;;;;;5061137;27;89696;-56
2023/07/28 09:24:48;;;;;;;1.67;0.83;;;;;;;;;;5060731;27;89194;-55
2023/07/28 09:27:24;;;;;;;1.17;0.97;;;;;;;;;;5061280;27;88528;-55
2023/07/28 09:29:54;;;;;;;1.67;0.93;;;;;;;;;;5064287;27;87696;-55
2023/07/28 09:32:31;;;;;;;0.87;0.87;;;;;;;;;;5076552;27;89607;-56
2023/07/28 09:35:08;;;;;;;2.73;1.10;;;;;;;;;;5073449;27;89140;-56
2023/07/28 09:37:38;;;;;;;1.20;0.90;;;;;;;;;;5081352;27;88757;-56
2023/07/28 09:40:11;;;;;;;2.53;1.43;;;;;;;;;;5080913;27;87543;-56
2023/07/28 09:42:39;;;;;;;2.13;1.17;;;;;;;;;;5064090;27;89747;-56
2023/07/28 09:45:10;;;;;;;1.67;1.27;;;;;;;;;;5063917;27;90023;-55
2023/07/28 09:47:50;;;;;;;4.10;1.10;;;;;;;;;;5077961;27;89741;-55
2023/07/28 09:50:18;;;;;;;1.20;0.90;;;;;;;;;;5084938;27;87869;-55
2023/07/28 09:52:48;;;;;;;3.23;1.03;;;;;;;;;;5084576;27;89667;-57
2023/07/28 09:55:16;;;;;;;1.20;1.00;;;;;;;;;;5082546;27;87975;-57
2023/07/28 09:57:46;;;;;;;3.03;1.10;;;;;;;;;;5083186;27;88670;-56
2023/07/28 10:00:17;;;;;;;1.40;1.10;;;;;;;;;;5085434;27;87497;-56
2023/07/28 10:02:45;;;;;;;1.27;0.87;;;;;;;;;;5084744;27;89647;-56
2023/07/28 10:05:15;;;;;;;1.27;1.13;;;;;;;;;;5070518;27;87963;-56
2023/07/28 10:07:44;;;;;;;3.43;1.60;;;;;;;;;;5075970;27;88743;-56
2023/07/28 10:10:16;;;;;;;3.30;1.00;;;;;;;;;;5082931;27;87946;-56
2023/07/28 10:12:47;;;;;;;1.83;1.03;;;;;;;;;;5075793;27;89828;-56
2023/07/28 10:15:17;;;;;;;3.33;1.13;;;;;;;;;;5064135;27;89490;-56
2023/07/28 10:17:47;;;;;;;2.80;1.13;;;;;;;;;;5063789;27;88951;-56
2023/07/28 10:20:28;;;;;;;7.47;1.40;;;;;;;;;;5064407;27;87592;-55
2023/07/28 10:23:03;;;;;;;1.67;0.97;;;;;;;;;;5064612;27;89090;-55
2023/07/28 10:25:33;;;;;;;3.23;1.63;;;;;;;;;;5070312;27;89332;-56
2023/07/28 10:28:03;;;;;;;4.70;1.50;;;;;;;;;;5063821;27;89910;-56
2023/07/28 10:30:38;;;;;;;1.23;1.03;;;;;;;;;;5065958;27;87659;-56
2023/07/28 10:33:06;;;;;;;4.33;1.53;;;;;;;;;;5066194;27;89257;-56
2023/07/28 10:35:35;;;;;;;2.10;1.00;;;;;;;;;;5070860;27;90129;-55
2023/07/28 10:38:22;;;;;;;2.80;1.27;;;;;;;;;;5077891;27;89652;-56
2023/07/28 10:40:51;;;;;;;1.83;0.87;;;;;;;;;;5062885;27;90339;-55
2023/07/28 10:43:20;;;;;;;6.10;1.50;;;;;;;;;;5071732;27;89768;-56
2023/07/28 10:45:50;;;;;;;5.13;1.67;;;;;;;;;;5083722;27;89032;-55
2023/07/28 10:48:18;;;;;;;4.73;1.20;;;;;;;;;;5083727;27;89654;-56
2023/07/28 10:50:47;;;;;;;3.70;1.33;;;;;;;;;;5084356;27;87617;-56
2023/07/28 10:53:16;;;;;;;7.23;1.67;;;;;;;;;;5082811;27;89492;-55
2023/07/28 10:55:44;;;;;;;2.77;1.27;;;;;;;;;;5081958;27;89507;-55
2023/07/28 10:58:12;;;;;;;2.77;1.33;;;;;;;;;;5083856;27;88364;-56
2023/07/28 11:00:41;;;;;;;1.93;1.10;;;;;;;;;;5083778;27;87663;-55
2023/07/28 11:03:11;;;;;;;2.93;1.70;;;;;;;;;;5083428;27;89642;-56
2023/07/28 11:05:40;;;;;;;2.07;1.20;;;;;;;;;;5083283;27;88744;-55
2023/07/28 11:08:08;;;;;;;4.90;1.13;;;;;;;;;;5083475;27;89165;-55
2023/07/28 11:10:37;;;;;;;1.87;1.33;;;;;;;;;;5075455;27;87568;-56
2023/07/28 11:13:08;;;;;;;1.80;1.47;;;;;;;;;;5062258;27;89504;-55
2023/07/28 11:15:57;;;;;;;2.47;1.40;;;;;;;;;;5062850;27;90961;-56
2023/07/28 11:18:28;;;;;;;1.47;1.03;;;;;;;;;;5063175;27;88775;-56
2023/07/28 11:20:56;;;;;;;3.43;1.17;;;;;;;;;;5073981;27;87473;-55
2023/07/28 11:23:25;;;;;;;4.47;1.33;;;;;;;;;;5068967;27;89687;-56
2023/07/28 11:25:53;;;;;;;1.93;1.10;;;;;;;;;;5082378;27;89983;-56
2023/07/28 11:28:22;;;;;;;1.10;0.93;;;;;;;;;;5081779;27;89963;-55
2023/07/28 11:30:50;;;;;;;2.20;0.93;;;;;;;;;;5063005;27;87368;-57
2023/07/28 11:33:19;;;;;;;1.20;1.00;;;;;;;;;;5068214;27;89770;-56
2023/07/28 11:35:49;;;;;;;4.53;1.43;;;;;;;;;;5078834;27;89126;-55
2023/07/28 11:38:17;;;;;;;1.93;0.97;;;;;;;;;;5083069;27;88861;-56
2023/07/28 11:40:46;;;;;;;1.93;1.20;;;;;;;;;;5045366;27;90203;-55
2023/07/28 11:43:14;;;;;;;1.77;0.70;;;;;;;;;;5021757;28;89647;-57
2023/07/28 11:45:43;;;;;;;2.87;0.77;;;;;;;;;;5022644;28;89097;-56
2023/07/28 11:48:12;;;;;;;4.27;1.40;;;;;;;;;;5022002;28;89059;-56
2023/07/28 11:50:41;;;;;;;3.80;1.00;;;;;;;;;;5021132;28;87661;-56
2023/07/28 11:53:11;;;;;;;1.10;1.00;;;;;;;;;;5021290;28;89646;-57
2023/07/28 11:55:40;;;;;;;3.63;1.30;;;;;;;;;;5021632;28;88025;-55
2023/07/28 11:58:11;;;;;;;2.23;1.23;;;;;;;;;;5022027;28;88647;-55
2023/07/28 12:00:42;;;;;;;6.13;1.50;;;;;;;;;;5022106;28;87495;-55
2023/07/28 12:03:12;;;;;;;0.93;0.87;;;;;;;;;;5024581;28;89641;-56
2023/07/28 12:05:41;;;;;;;3.07;1.03;;;;;;;;;;5041726;28;89355;-56
2023/07/28 12:08:14;;;;;;;1.37;0.93;;;;;;;;;;5040032;28;88565;-56
2023/07/28 12:10:56;;;;;;;3.80;1.53;;;;;;;;;;5031031;28;87637;-56
2023/07/28 12:13:27;;;;;;;2.23;1.70;;;;;;;;;;5020898;28;88999;-56
2023/07/28 12:15:59;;;;;;;3.00;1.40;;;;;;;;;;5036872;28;90049;-56
2023/07/28 12:18:31;;;;;;;6.43;2.80;;;;;;;;;;5021135;28;88230;-56
2023/07/28 12:21:02;;;;;;;3.43;1.83;;;;;;;;;;5019688;28;87358;-56
2023/07/28 12:23:32;;;;;;;3.33;2.10;;;;;;;;;;5023820;28;89706;-56
2023/07/28 12:26:04;;;;;;;3.90;1.93;;;;;;;;;;5040578;28;88842;-55
2023/07/28 12:28:33;;;;;;;4.27;2.23;;;;;;;;;;5032523;28;87467;-55
2023/07/28 12:31:12;;;;;;;3.97;2.10;;;;;;;;;;5021618;28;87641;-56
2023/07/28 12:33:40;;;;;;;5.30;3.10;;;;;;;;;;5028049;28;88547;-56
2023/07/28 12:36:09;;;;;;;4.87;3.10;;;;;;;;;;5026115;28;89176;-57
2023/07/28 12:38:43;;;;;;;4.97;3.07;;;;;;;;;;5024022;28;87586;-56
2023/07/28 12:41:12;;;;;;;5.17;2.43;;;;;;;;;;5074527;27;87880;-57
2023/07/28 12:43:40;;;;;;;3.80;3.00;;;;;;;;;;5081323;27;90851;-55
2023/07/28 12:46:11;;;;;;;7.10;3.73;;;;;;;;;;5067937;27;88676;-56
2023/07/28 12:48:40;;;;;;;5.50;3.90;;;;;;;;;;5077426;27;88906;-56
2023/07/28 12:51:12;;;;;;;7.50;3.60;;;;;;;;;;5080632;27;87529;-56
2023/07/28 12:53:42;;;;;;;4.77;3.57;;;;;;;;;;5077269;27;89964;-57
2023/07/28 12:56:11;;;;;;;5.83;3.77;;;;;;;;;;5061156;27;89051;-56
2023/07/28 12:58:39;;;;;;;7.60;3.90;;;;;;;;;;5061374;27;87731;-57
2023/07/28 13:01:11;;;;;;;6.57;3.93;;;;;;;;;;5060135;27;87452;-57
2023/07/28 13:03:40;;;;;;;7.73;4.70;;;;;;;;;;5066221;27;89927;-56
2023/07/28 13:06:09;;;;;;;4.93;4.00;;;;;;;;;;5080873;27;90029;-56
2023/07/28 13:08:38;;;;;;;8.33;4.50;;;;;;;;;;5081126;27;89712;-57
2023/07/28 13:11:10;;;;;;;9.00;4.30;;;;;;;;;;5071594;27;87424;-56
2023/07/28 13:13:42;;;;;;;7.37;4.50;;;;;;;;;;5059925;27;89066;-56
2023/07/28 13:16:11;;;;;;;6.83;4.93;;;;;;;;;;5079442;27;89111;-56
2023/07/28 13:18:40;;;;;;;7.20;4.80;;;;;;;;;;5081603;27;89129;-56
2023/07/28 13:21:10;;;;;;;7.00;4.13;;;;;;;;;;5081607;27;87656;-55
2023/07/28 13:23:38;;;;;;;8.33;5.13;;;;;;;;;;5081414;27;89749;-56
2023/07/28 13:26:07;;;;;;;8.43;4.50;;;;;;;;;;5080918;27;89293;-56
2023/07/28 13:28:37;;;;;;;7.97;5.13;;;;;;;;;;5073858;27;89087;-56
2023/07/28 13:31:06;;;;;;;6.47;4.43;;;;;;;;;;5069065;27;87991;-56
2023/07/28 13:33:35;;;;;;;7.00;4.63;;;;;;;;;;5062652;27;91918;-56
2023/07/28 13:36:07;;;;;;;10.97;5.37;;;;;;;;;;5078378;27;89327;-55
2023/07/28 13:38:36;;;;;;;9.87;5.03;;;;;;;;;;5075848;27;89348;-56
2023/07/28 13:41:05;;;;;;;7.03;5.13;;;;;;;;;;5069033;27;87711;-56
2023/07/28 13:43:35;;;;;;;8.43;5.70;;;;;;;;;;5066914;27;89611;-56
2023/07/28 13:46:05;;;;;;;7.97;5.60;;;;;;;;;;5073831;27;88930;-56
2023/07/28 13:48:40;;;;;;;8.90;5.63;;;;;;;;;;5078411;27;88683;-56
2023/07/28 13:51:21;;;;;;;9.47;5.83;;;;;;;;;;5078163;27;87834;-56
2023/07/28 13:54:09;;;;;;;9.37;5.53;;;;;;;;;;5078109;27;91339;-56
2023/07/28 13:56:42;;;;;;;7.83;5.63;;;;;;;;;;5077684;27;89344;-56
2023/07/28 13:59:28;;;;;;;8.40;5.37;;;;;;;;;;5078171;27;88707;-56
2023/07/28 14:01:58;;;;;;;12.10;6.40;;;;;;;;;;5078144;27;87275;-56
2023/07/28 14:04:28;;;;;;;9.87;5.77;;;;;;;;;;5077812;27;89777;-56
2023/07/28 14:06:59;;;;;;;8.47;5.83;;;;;;;;;;5077838;27;89118;-56
2023/07/28 14:09:28;;;;;;;11.53;5.93;;;;;;;;;;5078092;27;88886;-56
2023/07/28 14:11:56;;;;;;;10.00;5.70;;;;;;;;;;5078079;27;87609;-56
2023/07/28 14:14:25;;;;;;;7.77;5.57;;;;;;;;;;5078397;27;89924;-56
2023/07/28 14:16:53;;;;;;;8.60;5.93;;;;;;;;;;5081102;27;88967;-56
2023/07/28 14:19:27;;;;;;;11.03;5.43;;;;;;;;;;5080853;27;87766;-56
2023/07/28 14:21:55;;;;;;;9.43;5.03;;;;;;;;;;5081102;27;87974;-56
2023/07/28 14:24:24;;;;;;;9.20;5.50;;;;;;;;;;5081154;27;89731;-57
2023/07/28 14:26:52;;;;;;;7.67;5.53;;;;;;;;;;5081283;27;89056;-56
2023/07/28 14:29:27;;;;;;;8.20;5.40;;;;;;;;;;5080928;27;89108;-56
2023/07/28 14:31:55;;;;;;;7.67;4.90;;;;;;;;;;5081342;27;87657;-56
2023/07/28 14:34:25;;;;;;;7.73;4.63;;;;;;;;;;5081070;27;89698;-56
2023/07/28 14:36:54;;;;;;;9.20;5.93;;;;;;;;;;5081086;27;89598;-56
2023/07/28 14:39:22;;;;;;;5.37;4.73;;;;;;;;;;5080898;27;88692;-57
2023/07/28 14:41:51;;;;;;;8.57;4.67;;;;;;;;;;5080292;27;87607;-57
2023/07/28 14:44:22;;;;;;;6.97;4.50;;;;;;;;;;5079942;27;92373;-56
2023/07/28 14:46:52;;;;;;;9.57;5.20;;;;;;;;;;5080419;27;89878;-56
2023/07/28 14:49:21;;;;;;;6.23;4.70;;;;;;;;;;5080993;27;91974;-56
2023/07/28 14:51:51;;;;;;;8.97;5.33;;;;;;;;;;5081047;27;87342;-57
2023/07/28 14:54:20;;;;;;;9.10;5.63;;;;;;;;;;5080489;27;90047;-56
2023/07/28 14:56:48;;;;;;;7.17;4.90;;;;;;;;;;5080708;27;89244;-56